Airfield :
LOGIN :

Register | Disclaimer

   EN    FR    IT 

 










Legend :    VFR   Marginal VFR   IFR   Intensive IFR   Very Intensive IFR
Visi :
Ceiling :
>= 8 km
>= 3000ft
5 to 8 km
1000 to 3000 ft
1500m to 5 km
500 to 1000 ft
800 to 1500m
200 to 500 ft
< 800m
< 200 ft
Symbols :   Thunderstorms  Fog  Heavy snow  Heavy precipitations  Wind > 20 kt
SIGMETs :     Misc.  Thunderstorms  Icing  Turbulence  Mountain Waves  Volcanic Ashes







- Airport Elevation : 135 ft
- IATA code : TLV


LLBG - Ben Gurion

CURRENT METAR :
  • 182350Z VRB03KT 9999 SCT038 09/06 Q1022 NOSIG

EXPIRED METARs :
  • 182320Z VRB03KT 9999 SCT038 09/06 Q1022 NOSIG
  • 182250Z VRB03KT 9999 FEW033 09/06 Q1022 NOSIG
  • 182220Z VRB02KT CAVOK 09/06 Q1021 NOSIG
  • 182150Z VRB02KT CAVOK 09/06 Q1021 NOSIG
  • 182120Z VRB03KT 9999 FEW040 09/07 Q1021 NOSIG

TAF TAF LLBG
Valid from the 19 at 00:00 until the 20 at 00:00 UTC


182303Z 1900/1924 17004KT 9999 FEW035
BECMG 1907/1909 27010KT SCT030
PROB40 1909/1915 -RA BKN025
BECMG 1915/1917 VRB04KT TX17/1912Z TN09/1904Z
LLLL FIR / Asia



MET'MAP, your aeronautical weather chart ! - Copyright ORBIFLY December 2007 - Disclaimer

ORBIFLY MET'MAP TEAM :

Programming & Development : Alexandra Zaïnal
Concept & Development : Baudouin d'Aumeries
Co-Development & Prog : Marc-Olivier Méhu
Technical & hardware support : Manuel Goepfert

Contact : metmap@orbifly.com




SOURCES & CREDITS :

   NOAA